sensor_id;sensor_type;location;lat;lon;timestamp;temperature;humidity
3790;DHT22;1910;49.042;9.028;2023-07-31T00:08:22;16.30;99.90
3790;DHT22;1910;49.042;9.028;2023-07-31T00:18:05;16.20;99.90
3790;DHT22;1910;49.042;9.028;2023-07-31T00:23:02;16.20;99.90
3790;DHT22;1910;49.042;9.028;2023-07-31T00:28:24;16.10;99.90
3790;DHT22;1910;49.042;9.028;2023-07-31T00:35:52;16.10;99.90
3790;DHT22;1910;49.042;9.028;2023-07-31T00:38:21;16.00;99.90
3790;DHT22;1910;49.042;9.028;2023-07-31T00:48:06;16.30;99.90
3790;DHT22;1910;49.042;9.028;2023-07-31T00:50:35;16.30;99.90
3790;DHT22;1910;49.042;9.028;2023-07-31T00:53:01;18.10;99.90
3790;DHT22;1910;49.042;9.028;2023-07-31T00:57:58;16.30;99.90
3790;DHT22;1910;49.042;9.028;2023-07-31T01:00:25;18.70;99.90
3790;DHT22;1910;49.042;9.028;2023-07-31T01:02:52;16.30;99.90
3790;DHT22;1910;49.042;9.028;2023-07-31T01:05:25;16.30;99.90
3790;DHT22;1910;49.042;9.028;2023-07-31T01:08:18;16.30;99.90
3790;DHT22;1910;49.042;9.028;2023-07-31T01:10:53;16.40;99.90
3790;DHT22;1910;49.042;9.028;2023-07-31T01:13:21;16.40;99.90
3790;DHT22;1910;49.042;9.028;2023-07-31T01:15:49;20.00;99.90
3790;DHT22;1910;49.042;9.028;2023-07-31T01:20:42;16.60;99.90
3790;DHT22;1910;49.042;9.028;2023-07-31T01:26:21;16.40;99.90
3790;DHT22;1910;49.042;9.028;2023-07-31T01:29:07;16.30;99.90
3790;DHT22;1910;49.042;9.028;2023-07-31T01:31:34;16.50;99.90
3790;DHT22;1910;49.042;9.028;2023-07-31T01:36:30;16.50;99.90
3790;DHT22;1910;49.042;9.028;2023-07-31T01:39:00;16.50;99.90
3790;DHT22;1910;49.042;9.028;2023-07-31T01:41:27;19.30;99.90
3790;DHT22;1910;49.042;9.028;2023-07-31T01:43:52;16.40;99.90
3790;DHT22;1910;49.042;9.028;2023-07-31T01:46:18;17.00;99.90
3790;DHT22;1910;49.042;9.028;2023-07-31T01:53:36;16.30;99.90
3790;DHT22;1910;49.042;9.028;2023-07-31T02:00:54;16.30;99.90
3790;DHT22;1910;49.042;9.028;2023-07-31T02:03:19;15.90;99.90
3790;DHT22;1910;49.042;9.028;2023-07-31T02:05:49;16.20;99.90
3790;DHT22;1910;49.042;9.028;2023-07-31T02:08:15;16.40;99.90
3790;DHT22;1910;49.042;9.028;2023-07-31T02:10:42;16.30;99.90
3790;DHT22;1910;49.042;9.028;2023-07-31T02:15:34;16.30;99.90
3790;DHT22;1910;49.042;9.028;2023-07-31T02:18:00;16.30;99.90
3790;DHT22;1910;49.042;9.028;2023-07-31T02:27:44;16.30;99.90
3790;DHT22;1910;49.042;9.028;2023-07-31T02:30:10;16.40;99.90
3790;DHT22;1910;49.042;9.028;2023-07-31T02:32:35;16.50;99.90
3790;DHT22;1910;49.042;9.028;2023-07-31T02:35:01;16.50;99.90
3790;DHT22;1910;49.042;9.028;2023-07-31T02:37:28;18.10;99.90
3790;DHT22;1910;49.042;9.028;2023-07-31T02:39:55;16.50;99.90
3790;DHT22;1910;49.042;9.028;2023-07-31T02:42:20;16.50;99.90
3790;DHT22;1910;49.042;9.028;2023-07-31T02:47:12;16.50;99.90
3790;DHT22;1910;49.042;9.028;2023-07-31T02:49:37;17.10;99.90
3790;DHT22;1910;49.042;9.028;2023-07-31T02:52:03;17.10;99.90
3790;DHT22;1910;49.042;9.028;2023-07-31T02:54:29;16.40;99.90
3790;DHT22;1910;49.042;9.028;2023-07-31T02:56:55;16.50;99.90
3790;DHT22;1910;49.042;9.028;2023-07-31T02:59:20;16.40;99.90
3790;DHT22;1910;49.042;9.028;2023-07-31T03:01:46;16.40;99.90
3790;DHT22;1910;49.042;9.028;2023-07-31T03:04:11;16.50;99.90
3790;DHT22;1910;49.042;9.028;2023-07-31T03:06:37;18.10;99.90
3790;DHT22;1910;49.042;9.028;2023-07-31T03:09:02;16.40;99.90
3790;DHT22;1910;49.042;9.028;2023-07-31T03:11:28;16.40;99.90
3790;DHT22;1910;49.042;9.028;2023-07-31T03:13:54;16.30;99.90
3790;DHT22;1910;49.042;9.028;2023-07-31T03:16:19;16.30;99.90
3790;DHT22;1910;49.042;9.028;2023-07-31T03:18:45;17.10;99.90
3790;DHT22;1910;49.042;9.028;2023-07-31T03:23:36;16.30;99.90
3790;DHT22;1910;49.042;9.028;2023-07-31T03:26:07;16.30;99.90
3790;DHT22;1910;49.042;9.028;2023-07-31T03:28:32;16.30;99.90
3790;DHT22;1910;49.042;9.028;2023-07-31T03:30:59;16.30;99.90
3790;DHT22;1910;49.042;9.028;2023-07-31T03:33:25;16.40;99.90
3790;DHT22;1910;49.042;9.028;2023-07-31T03:35:51;16.30;99.90
3790;DHT22;1910;49.042;9.028;2023-07-31T03:38:16;16.30;99.90
3790;DHT22;1910;49.042;9.028;2023-07-31T03:40:42;16.30;99.90
3790;DHT22;1910;49.042;9.028;2023-07-31T03:43:08;16.40;99.90
3790;DHT22;1910;49.042;9.028;2023-07-31T03:45:33;16.40;99.90
3790;DHT22;1910;49.042;9.028;2023-07-31T03:50:25;16.60;99.90
3790;DHT22;1910;49.042;9.028;2023-07-31T04:00:18;16.40;99.90
3790;DHT22;1910;49.042;9.028;2023-07-31T04:02:45;16.30;99.90
3790;DHT22;1910;49.042;9.028;2023-07-31T04:05:10;16.30;99.90
3790;DHT22;1910;49.042;9.028;2023-07-31T04:07:36;16.30;99.90
3790;DHT22;1910;49.042;9.028;2023-07-31T04:10:03;16.30;99.90
3790;DHT22;1910;49.042;9.028;2023-07-31T04:12:29;16.40;99.90
3790;DHT22;1910;49.042;9.028;2023-07-31T04:17:20;16.40;99.90
3790;DHT22;1910;49.042;9.028;2023-07-31T04:19:46;16.50;99.90
3790;DHT22;1910;49.042;9.028;2023-07-31T04:22:11;16.60;99.90
3790;DHT22;1910;49.042;9.028;2023-07-31T04:24:37;16.70;99.90
3790;DHT22;1910;49.042;9.028;2023-07-31T04:27:02;17.00;99.90
3790;DHT22;1910;49.042;9.028;2023-07-31T04:29:28;17.10;99.90
3790;DHT22;1910;49.042;9.028;2023-07-31T04:34:20;17.20;99.90
3790;DHT22;1910;49.042;9.028;2023-07-31T04:36:45;17.30;99.90
3790;DHT22;1910;49.042;9.028;2023-07-31T04:39:11;17.40;99.90
3790;DHT22;1910;49.042;9.028;2023-07-31T04:41:36;17.70;99.90
3790;DHT22;1910;49.042;9.028;2023-07-31T04:44:02;18.00;99.90
3790;DHT22;1910;49.042;9.028;2023-07-31T04:46:29;18.10;99.90
3790;DHT22;1910;49.042;9.028;2023-07-31T04:48:54;18.10;99.90
3790;DHT22;1910;49.042;9.028;2023-07-31T04:51:20;18.20;99.90
3790;DHT22;1910;49.042;9.028;2023-07-31T04:53:46;18.40;99.90
3790;DHT22;1910;49.042;9.028;2023-07-31T04:56:12;18.60;99.90
3790;DHT22;1910;49.042;9.028;2023-07-31T04:58:37;18.50;99.90
3790;DHT22;1910;49.042;9.028;2023-07-31T05:01:03;18.50;99.90
3790;DHT22;1910;49.042;9.028;2023-07-31T05:03:28;18.60;99.90
3790;DHT22;1910;49.042;9.028;2023-07-31T05:05:54;18.50;99.90
3790;DHT22;1910;49.042;9.028;2023-07-31T05:08:19;18.40;99.90
3790;DHT22;1910;49.042;9.028;2023-07-31T05:10:45;18.20;99.90
3790;DHT22;1910;49.042;9.028;2023-07-31T05:13:10;18.10;99.90
3790;DHT22;1910;49.042;9.028;2023-07-31T05:15:36;18.10;99.90
3790;DHT22;1910;49.042;9.028;2023-07-31T05:18:01;18.10;99.90
3790;DHT22;1910;49.042;9.028;2023-07-31T05:20:27;18.00;99.90
3790;DHT22;1910;49.042;9.028;2023-07-31T05:22:53;18.10;99.90
3790;DHT22;1910;49.042;9.028;2023-07-31T05:25:18;18.20;99.90
3790;DHT22;1910;49.042;9.028;2023-07-31T05:27:44;18.20;99.90
3790;DHT22;1910;49.042;9.028;2023-07-31T05:30:09;18.40;99.90
3790;DHT22;1910;49.042;9.028;2023-07-31T05:32:35;18.40;99.90
3790;DHT22;1910;49.042;9.028;2023-07-31T05:35:01;18.50;99.90
3790;DHT22;1910;49.042;9.028;2023-07-31T05:37:26;18.70;99.90
3790;DHT22;1910;49.042;9.028;2023-07-31T05:39:52;18.90;99.90
3790;DHT22;1910;49.042;9.028;2023-07-31T05:42:17;19.20;99.90
3790;DHT22;1910;49.042;9.028;2023-07-31T05:44:43;19.90;99.90
3790;DHT22;1910;49.042;9.028;2023-07-31T05:47:09;20.10;99.90
3790;DHT22;1910;49.042;9.028;2023-07-31T05:49:35;19.90;99.90
3790;DHT22;1910;49.042;9.028;2023-07-31T05:52:01;20.20;99.90
3790;DHT22;1910;49.042;9.028;2023-07-31T05:54:27;21.00;99.90
3790;DHT22;1910;49.042;9.028;2023-07-31T05:56:52;21.00;99.90
3790;DHT22;1910;49.042;9.028;2023-07-31T05:59:18;21.70;99.90
3790;DHT22;1910;49.042;9.028;2023-07-31T06:01:43;22.00;99.90
3790;DHT22;1910;49.042;9.028;2023-07-31T06:04:09;22.40;99.90
3790;DHT22;1910;49.042;9.028;2023-07-31T06:06:34;23.80;99.90
3790;DHT22;1910;49.042;9.028;2023-07-31T06:09:00;23.20;99.90
3790;DHT22;1910;49.042;9.028;2023-07-31T06:11:27;24.40;99.90
3790;DHT22;1910;49.042;9.028;2023-07-31T06:13:52;26.10;99.90
3790;DHT22;1910;49.042;9.028;2023-07-31T06:16:18;28.30;98.40
3790;DHT22;1910;49.042;9.028;2023-07-31T06:21:10;27.30;92.30
3790;DHT22;1910;49.042;9.028;2023-07-31T06:23:36;25.60;94.20
3790;DHT22;1910;49.042;9.028;2023-07-31T06:26:01;24.00;96.40
3790;DHT22;1910;49.042;9.028;2023-07-31T06:28:28;22.70;99.60
3790;DHT22;1910;49.042;9.028;2023-07-31T06:30:58;22.60;99.90
3790;DHT22;1910;49.042;9.028;2023-07-31T06:33:24;22.40;99.90
3790;DHT22;1910;49.042;9.028;2023-07-31T06:35:50;21.90;99.90
3790;DHT22;1910;49.042;9.028;2023-07-31T06:38:18;21.90;99.90
3790;DHT22;1910;49.042;9.028;2023-07-31T06:40:43;21.60;99.90
3790;DHT22;1910;49.042;9.028;2023-07-31T06:43:09;21.50;99.90
3790;DHT22;1910;49.042;9.028;2023-07-31T06:45:36;21.30;99.90
3790;DHT22;1910;49.042;9.028;2023-07-31T06:48:08;21.70;99.90
3790;DHT22;1910;49.042;9.028;2023-07-31T06:50:34;22.10;99.90
3790;DHT22;1910;49.042;9.028;2023-07-31T06:53:00;22.10;99.90
3790;DHT22;1910;49.042;9.028;2023-07-31T06:55:26;22.50;99.90
3790;DHT22;1910;49.042;9.028;2023-07-31T06:57:53;22.70;99.90
3790;DHT22;1910;49.042;9.028;2023-07-31T07:00:21;23.00;99.90
3790;DHT22;1910;49.042;9.028;2023-07-31T07:02:47;22.90;99.90
3790;DHT22;1910;49.042;9.028;2023-07-31T07:05:13;22.30;99.90
3790;DHT22;1910;49.042;9.028;2023-07-31T07:07:39;22.20;99.90
3790;DHT22;1910;49.042;9.028;2023-07-31T07:10:05;22.00;99.90
3790;DHT22;1910;49.042;9.028;2023-07-31T07:12:31;21.60;99.90
3790;DHT22;1910;49.042;9.028;2023-07-31T07:14:57;21.50;99.90
3790;DHT22;1910;49.042;9.028;2023-07-31T07:17:24;21.60;99.90
3790;DHT22;1910;49.042;9.028;2023-07-31T07:19:49;21.80;99.90
3790;DHT22;1910;49.042;9.028;2023-07-31T07:22:15;21.70;99.90
3790;DHT22;1910;49.042;9.028;2023-07-31T07:24:42;22.50;99.90
3790;DHT22;1910;49.042;9.028;2023-07-31T07:27:07;22.40;99.90
3790;DHT22;1910;49.042;9.028;2023-07-31T07:29:38;22.70;99.90
3790;DHT22;1910;49.042;9.028;2023-07-31T07:32:04;22.60;99.90
3790;DHT22;1910;49.042;9.028;2023-07-31T07:34:30;23.40;99.90
3790;DHT22;1910;49.042;9.028;2023-07-31T07:36:56;23.40;99.90
3790;DHT22;1910;49.042;9.028;2023-07-31T07:39:22;24.40;99.90
3790;DHT22;1910;49.042;9.028;2023-07-31T07:41:47;24.40;99.90
3790;DHT22;1910;49.042;9.028;2023-07-31T07:44:13;24.30;99.90
3790;DHT22;1910;49.042;9.028;2023-07-31T07:46:39;25.30;99.90
3790;DHT22;1910;49.042;9.028;2023-07-31T07:49:05;26.20;99.90
3790;DHT22;1910;49.042;9.028;2023-07-31T07:51:30;27.00;97.30
3790;DHT22;1910;49.042;9.028;2023-07-31T07:54:00;27.10;94.50
3790;DHT22;1910;49.042;9.028;2023-07-31T07:56:26;27.30;94.80
3790;DHT22;1910;49.042;9.028;2023-07-31T07:58:52;25.70;95.10
3790;DHT22;1910;49.042;9.028;2023-07-31T08:01:18;25.30;97.60
3790;DHT22;1910;49.042;9.028;2023-07-31T08:03:44;25.40;97.30
3790;DHT22;1910;49.042;9.028;2023-07-31T08:06:09;24.70;97.40
3790;DHT22;1910;49.042;9.028;2023-07-31T08:08:37;24.80;99.70
3790;DHT22;1910;49.042;9.028;2023-07-31T08:11:02;25.20;99.90
3790;DHT22;1910;49.042;9.028;2023-07-31T08:15:57;26.50;97.20
3790;DHT22;1910;49.042;9.028;2023-07-31T08:25:41;28.30;92.00
3790;DHT22;1910;49.042;9.028;2023-07-31T08:28:07;28.20;92.00
3790;DHT22;1910;49.042;9.028;2023-07-31T08:32:59;29.20;88.00
3790;DHT22;1910;49.042;9.028;2023-07-31T08:35:26;26.90;91.10
3790;DHT22;1910;49.042;9.028;2023-07-31T08:37:54;26.30;91.70
3790;DHT22;1910;49.042;9.028;2023-07-31T08:40:20;25.60;93.40
3790;DHT22;1910;49.042;9.028;2023-07-31T08:42:48;25.50;94.40
3790;DHT22;1910;49.042;9.028;2023-07-31T08:45:18;25.70;95.10
3790;DHT22;1910;49.042;9.028;2023-07-31T08:47:55;25.10;95.50
3790;DHT22;1910;49.042;9.028;2023-07-31T08:50:21;24.50;96.40
3790;DHT22;1910;49.042;9.028;2023-07-31T08:52:49;24.20;97.90
3790;DHT22;1910;49.042;9.028;2023-07-31T08:55:15;24.40;97.90
3790;DHT22;1910;49.042;9.028;2023-07-31T08:57:41;24.30;96.50
3790;DHT22;1910;49.042;9.028;2023-07-31T09:00:09;24.00;98.50
3790;DHT22;1910;49.042;9.028;2023-07-31T09:02:43;23.70;99.10
3790;DHT22;1910;49.042;9.028;2023-07-31T09:05:11;24.70;99.50
3790;DHT22;1910;49.042;9.028;2023-07-31T09:07:37;24.70;99.80
3790;DHT22;1910;49.042;9.028;2023-07-31T09:10:03;24.30;98.00
3790;DHT22;1910;49.042;9.028;2023-07-31T09:12:29;24.40;98.10
3790;DHT22;1910;49.042;9.028;2023-07-31T09:14:57;24.00;99.20
3790;DHT22;1910;49.042;9.028;2023-07-31T09:17:33;23.60;99.90
3790;DHT22;1910;49.042;9.028;2023-07-31T09:20:18;24.10;99.90
3790;DHT22;1910;49.042;9.028;2023-07-31T09:22:45;24.60;99.90
3790;DHT22;1910;49.042;9.028;2023-07-31T09:25:25;24.60;99.20
3790;DHT22;1910;49.042;9.028;2023-07-31T09:27:59;23.30;97.50
3790;DHT22;1910;49.042;9.028;2023-07-31T09:30:25;23.20;99.60
3790;DHT22;1910;49.042;9.028;2023-07-31T09:33:00;22.90;99.50
3790;DHT22;1910;49.042;9.028;2023-07-31T09:35:29;22.80;99.90
3790;DHT22;1910;49.042;9.028;2023-07-31T09:37:59;22.50;99.80
3790;DHT22;1910;49.042;9.028;2023-07-31T09:40:39;22.40;99.90
3790;DHT22;1910;49.042;9.028;2023-07-31T09:43:07;22.90;99.90
3790;DHT22;1910;49.042;9.028;2023-07-31T09:45:38;23.00;99.90
3790;DHT22;1910;49.042;9.028;2023-07-31T09:48:10;23.10;99.90
3790;DHT22;1910;49.042;9.028;2023-07-31T09:50:38;23.50;99.90
3790;DHT22;1910;49.042;9.028;2023-07-31T09:53:04;23.20;99.90
3790;DHT22;1910;49.042;9.028;2023-07-31T09:55:30;23.40;99.90
3790;DHT22;1910;49.042;9.028;2023-07-31T09:57:57;23.90;99.90
3790;DHT22;1910;49.042;9.028;2023-07-31T10:00:23;24.00;98.90
3790;DHT22;1910;49.042;9.028;2023-07-31T10:02:51;24.30;99.30
3790;DHT22;1910;49.042;9.028;2023-07-31T10:05:19;24.30;98.60
3790;DHT22;1910;49.042;9.028;2023-07-31T10:07:53;24.80;98.00
3790;DHT22;1910;49.042;9.028;2023-07-31T10:10:21;24.80;98.50
3790;DHT22;1910;49.042;9.028;2023-07-31T10:12:52;25.90;97.00
3790;DHT22;1910;49.042;9.028;2023-07-31T10:15:18;26.80;96.10
3790;DHT22;1910;49.042;9.028;2023-07-31T10:17:47;26.10;93.20
3790;DHT22;1910;49.042;9.028;2023-07-31T10:25:08;24.80;94.00
3790;DHT22;1910;49.042;9.028;2023-07-31T10:27:35;24.50;95.00
3790;DHT22;1910;49.042;9.028;2023-07-31T10:30:03;24.50;96.10
3790;DHT22;1910;49.042;9.028;2023-07-31T10:32:30;24.70;95.80
3790;DHT22;1910;49.042;9.028;2023-07-31T10:34:57;25.00;95.30
3790;DHT22;1910;49.042;9.028;2023-07-31T10:37:40;25.00;95.60
3790;DHT22;1910;49.042;9.028;2023-07-31T10:40:11;24.90;94.80
3790;DHT22;1910;49.042;9.028;2023-07-31T10:42:49;24.50;95.30
3790;DHT22;1910;49.042;9.028;2023-07-31T10:45:31;24.80;96.50
3790;DHT22;1910;49.042;9.028;2023-07-31T10:48:01;24.90;97.40
3790;DHT22;1910;49.042;9.028;2023-07-31T10:50:28;24.60;97.10
3790;DHT22;1910;49.042;9.028;2023-07-31T10:52:55;24.20;96.70
3790;DHT22;1910;49.042;9.028;2023-07-31T10:55:26;24.40;97.80
3790;DHT22;1910;49.042;9.028;2023-07-31T10:57:53;24.10;97.70
3790;DHT22;1910;49.042;9.028;2023-07-31T11:03:20;23.00;97.20
3790;DHT22;1910;49.042;9.028;2023-07-31T11:06:15;23.90;99.90
3790;DHT22;1910;49.042;9.028;2023-07-31T11:08:49;23.70;98.80
3790;DHT22;1910;49.042;9.028;2023-07-31T11:11:17;23.60;98.70
3790;DHT22;1910;49.042;9.028;2023-07-31T11:13:53;23.20;98.00
3790;DHT22;1910;49.042;9.028;2023-07-31T11:16:22;23.80;99.90
3790;DHT22;1910;49.042;9.028;2023-07-31T11:18:49;24.10;98.20
3790;DHT22;1910;49.042;9.028;2023-07-31T11:21:16;22.90;98.70
3790;DHT22;1910;49.042;9.028;2023-07-31T11:23:46;23.40;99.90
3790;DHT22;1910;49.042;9.028;2023-07-31T11:26:11;23.60;99.50
3790;DHT22;1910;49.042;9.028;2023-07-31T11:31:04;23.20;99.40
3790;DHT22;1910;49.042;9.028;2023-07-31T11:33:30;23.30;99.80
3790;DHT22;1910;49.042;9.028;2023-07-31T11:35:56;23.60;99.90
3790;DHT22;1910;49.042;9.028;2023-07-31T11:38:29;23.90;99.40
3790;DHT22;1910;49.042;9.028;2023-07-31T11:40:59;24.30;98.50
3790;DHT22;1910;49.042;9.028;2023-07-31T11:43:25;24.60;98.40
3790;DHT22;1910;49.042;9.028;2023-07-31T11:45:57;24.10;98.90
3790;DHT22;1910;49.042;9.028;2023-07-31T11:48:30;23.50;97.90
3790;DHT22;1910;49.042;9.028;2023-07-31T11:51:00;23.40;99.50
3790;DHT22;1910;49.042;9.028;2023-07-31T11:53:28;22.90;98.80
3790;DHT22;1910;49.042;9.028;2023-07-31T11:56:00;23.10;99.80
3790;DHT22;1910;49.042;9.028;2023-07-31T11:58:27;23.10;99.50
3790;DHT22;1910;49.042;9.028;2023-07-31T12:00:53;23.30;99.50
3790;DHT22;1910;49.042;9.028;2023-07-31T12:03:19;22.90;99.90
3790;DHT22;1910;49.042;9.028;2023-07-31T12:05:47;22.60;99.90
3790;DHT22;1910;49.042;9.028;2023-07-31T12:08:13;22.60;98.80
3790;DHT22;1910;49.042;9.028;2023-07-31T12:10:39;22.60;99.90
3790;DHT22;1910;49.042;9.028;2023-07-31T12:13:23;22.70;99.90
3790;DHT22;1910;49.042;9.028;2023-07-31T12:15:53;22.80;99.90
3790;DHT22;1910;49.042;9.028;2023-07-31T12:18:20;22.90;99.90
3790;DHT22;1910;49.042;9.028;2023-07-31T12:23:19;22.80;99.90
3790;DHT22;1910;49.042;9.028;2023-07-31T12:28:44;22.70;99.80
3790;DHT22;1910;49.042;9.028;2023-07-31T12:31:11;22.90;99.90
3790;DHT22;1910;49.042;9.028;2023-07-31T12:33:39;23.00;99.90
3790;DHT22;1910;49.042;9.028;2023-07-31T12:36:29;23.40;99.20
3790;DHT22;1910;49.042;9.028;2023-07-31T12:38:57;23.10;99.90
3790;DHT22;1910;49.042;9.028;2023-07-31T12:41:25;23.60;99.40
3790;DHT22;1910;49.042;9.028;2023-07-31T12:43:52;24.00;99.90
3790;DHT22;1910;49.042;9.028;2023-07-31T12:46:18;23.50;98.70
3790;DHT22;1910;49.042;9.028;2023-07-31T12:48:44;23.10;99.60
3790;DHT22;1910;49.042;9.028;2023-07-31T12:51:09;23.90;99.90
3790;DHT22;1910;49.042;9.028;2023-07-31T13:15:29;23.60;99.30
3790;DHT22;1910;49.042;9.028;2023-07-31T13:17:55;23.50;99.90
3790;DHT22;1910;49.042;9.028;2023-07-31T13:20:20;23.70;99.00
3790;DHT22;1910;49.042;9.028;2023-07-31T13:22:46;23.60;98.90
3790;DHT22;1910;49.042;9.028;2023-07-31T13:25:14;23.80;99.90
3790;DHT22;1910;49.042;9.028;2023-07-31T13:30:06;23.90;99.60
3790;DHT22;1910;49.042;9.028;2023-07-31T13:37:26;25.20;97.80
3790;DHT22;1910;49.042;9.028;2023-07-31T13:49:36;24.30;99.50
3790;DHT22;1910;49.042;9.028;2023-07-31T13:52:02;24.30;99.90
3790;DHT22;1910;49.042;9.028;2023-07-31T14:01:46;23.90;99.90
3790;DHT22;1910;49.042;9.028;2023-07-31T14:04:12;24.70;99.90
3790;DHT22;1910;49.042;9.028;2023-07-31T14:06:38;24.00;99.90
3790;DHT22;1910;49.042;9.028;2023-07-31T14:09:04;24.00;99.90
3790;DHT22;1910;49.042;9.028;2023-07-31T14:11:33;24.40;99.90
3790;DHT22;1910;49.042;9.028;2023-07-31T14:14:00;24.30;99.90
3790;DHT22;1910;49.042;9.028;2023-07-31T14:16:30;24.00;99.90
3790;DHT22;1910;49.042;9.028;2023-07-31T14:18:55;24.00;99.90
3790;DHT22;1910;49.042;9.028;2023-07-31T14:21:21;23.90;99.90
3790;DHT22;1910;49.042;9.028;2023-07-31T14:26:12;25.00;99.30
3790;DHT22;1910;49.042;9.028;2023-07-31T14:28:38;25.10;98.50
3790;DHT22;1910;49.042;9.028;2023-07-31T14:31:05;25.00;99.50
3790;DHT22;1910;49.042;9.028;2023-07-31T14:33:30;24.80;98.60
3790;DHT22;1910;49.042;9.028;2023-07-31T14:35:56;24.00;99.40
3790;DHT22;1910;49.042;9.028;2023-07-31T14:40:47;24.00;99.60
3790;DHT22;1910;49.042;9.028;2023-07-31T14:43:15;23.80;99.90
3790;DHT22;1910;49.042;9.028;2023-07-31T14:45:41;23.70;99.90
3790;DHT22;1910;49.042;9.028;2023-07-31T14:48:06;23.80;99.90
3790;DHT22;1910;49.042;9.028;2023-07-31T14:50:32;24.00;99.90
3790;DHT22;1910;49.042;9.028;2023-07-31T14:52:58;24.30;99.90
3790;DHT22;1910;49.042;9.028;2023-07-31T14:55:23;24.00;99.90
3790;DHT22;1910;49.042;9.028;2023-07-31T15:00:15;23.90;99.90
3790;DHT22;1910;49.042;9.028;2023-07-31T15:02:40;24.10;99.90
3790;DHT22;1910;49.042;9.028;2023-07-31T15:05:07;23.80;99.90
3790;DHT22;1910;49.042;9.028;2023-07-31T15:07:33;23.60;99.90
3790;DHT22;1910;49.042;9.028;2023-07-31T15:10:00;23.40;99.90
3790;DHT22;1910;49.042;9.028;2023-07-31T15:12:26;23.80;99.90
3790;DHT22;1910;49.042;9.028;2023-07-31T15:14:53;23.60;99.60
3790;DHT22;1910;49.042;9.028;2023-07-31T15:17:18;23.50;99.90
3790;DHT22;1910;49.042;9.028;2023-07-31T15:19:44;23.70;99.90
3790;DHT22;1910;49.042;9.028;2023-07-31T15:24:35;23.90;99.90
3790;DHT22;1910;49.042;9.028;2023-07-31T15:27:01;23.80;99.90
3790;DHT22;1910;49.042;9.028;2023-07-31T15:29:28;23.80;99.90
3790;DHT22;1910;49.042;9.028;2023-07-31T15:31:54;24.00;99.90
3790;DHT22;1910;49.042;9.028;2023-07-31T15:34:19;23.50;99.90
3790;DHT22;1910;49.042;9.028;2023-07-31T15:36:45;23.30;99.90
3790;DHT22;1910;49.042;9.028;2023-07-31T15:39:11;23.40;99.90
3790;DHT22;1910;49.042;9.028;2023-07-31T15:41:41;23.20;99.90
3790;DHT22;1910;49.042;9.028;2023-07-31T15:44:07;23.30;99.90
3790;DHT22;1910;49.042;9.028;2023-07-31T15:46:33;23.00;99.90
3790;DHT22;1910;49.042;9.028;2023-07-31T15:48:58;23.20;99.90
3790;DHT22;1910;49.042;9.028;2023-07-31T15:51:24;23.20;99.90
3790;DHT22;1910;49.042;9.028;2023-07-31T15:53:50;23.30;99.90
3790;DHT22;1910;49.042;9.028;2023-07-31T15:56:16;23.60;99.90
3790;DHT22;1910;49.042;9.028;2023-07-31T16:01:08;23.70;99.90
3790;DHT22;1910;49.042;9.028;2023-07-31T16:03:33;23.40;99.90
3790;DHT22;1910;49.042;9.028;2023-07-31T16:05:59;23.40;99.90
3790;DHT22;1910;49.042;9.028;2023-07-31T16:08:25;23.30;99.90
3790;DHT22;1910;49.042;9.028;2023-07-31T16:10:50;23.30;99.90
3790;DHT22;1910;49.042;9.028;2023-07-31T16:13:16;23.20;99.90
3790;DHT22;1910;49.042;9.028;2023-07-31T16:15:42;23.10;99.90
3790;DHT22;1910;49.042;9.028;2023-07-31T16:18:07;23.10;99.90
3790;DHT22;1910;49.042;9.028;2023-07-31T16:20:33;23.10;99.90
3790;DHT22;1910;49.042;9.028;2023-07-31T16:22:59;23.20;99.90
3790;DHT22;1910;49.042;9.028;2023-07-31T16:27:51;22.90;99.90
3790;DHT22;1910;49.042;9.028;2023-07-31T16:30:17;22.90;99.90
3790;DHT22;1910;49.042;9.028;2023-07-31T16:32:43;23.00;99.90
3790;DHT22;1910;49.042;9.028;2023-07-31T16:35:10;23.10;99.90
3790;DHT22;1910;49.042;9.028;2023-07-31T16:37:35;23.20;99.90
3790;DHT22;1910;49.042;9.028;2023-07-31T16:40:02;23.20;99.90
3790;DHT22;1910;49.042;9.028;2023-07-31T16:42:28;23.10;99.90
3790;DHT22;1910;49.042;9.028;2023-07-31T16:44:54;22.80;99.90
3790;DHT22;1910;49.042;9.028;2023-07-31T16:47:21;22.70;99.90
3790;DHT22;1910;49.042;9.028;2023-07-31T16:49:46;22.70;99.90
3790;DHT22;1910;49.042;9.028;2023-07-31T16:52:12;22.70;99.90
3790;DHT22;1910;49.042;9.028;2023-07-31T16:54:37;22.50;99.90
3790;DHT22;1910;49.042;9.028;2023-07-31T16:57:03;22.50;99.90
3790;DHT22;1910;49.042;9.028;2023-07-31T16:59:29;22.50;99.90
3790;DHT22;1910;49.042;9.028;2023-07-31T17:01:54;22.40;99.90
3790;DHT22;1910;49.042;9.028;2023-07-31T17:04:21;22.40;99.90
3790;DHT22;1910;49.042;9.028;2023-07-31T17:06:47;22.20;99.90
3790;DHT22;1910;49.042;9.028;2023-07-31T17:09:12;22.20;99.90
3790;DHT22;1910;49.042;9.028;2023-07-31T17:11:38;22.10;99.90
3790;DHT22;1910;49.042;9.028;2023-07-31T17:14:03;22.00;99.90
3790;DHT22;1910;49.042;9.028;2023-07-31T17:16:32;21.90;99.90
3790;DHT22;1910;49.042;9.028;2023-07-31T17:19:00;21.70;99.90
3790;DHT22;1910;49.042;9.028;2023-07-31T17:21:26;21.70;99.90
3790;DHT22;1910;49.042;9.028;2023-07-31T17:23:52;21.70;99.90
3790;DHT22;1910;49.042;9.028;2023-07-31T17:26:18;21.60;99.90
3790;DHT22;1910;49.042;9.028;2023-07-31T17:28:43;21.30;99.90
3790;DHT22;1910;49.042;9.028;2023-07-31T17:31:10;21.10;99.90
3790;DHT22;1910;49.042;9.028;2023-07-31T17:33:38;20.90;99.90
3790;DHT22;1910;49.042;9.028;2023-07-31T17:36:05;20.80;99.90
3790;DHT22;1910;49.042;9.028;2023-07-31T17:38:30;20.80;99.90
3790;DHT22;1910;49.042;9.028;2023-07-31T17:40:56;20.70;99.90
3790;DHT22;1910;49.042;9.028;2023-07-31T17:43:22;21.60;99.90
3790;DHT22;1910;49.042;9.028;2023-07-31T17:45:47;20.40;99.90
3790;DHT22;1910;49.042;9.028;2023-07-31T17:48:13;20.20;99.90
3790;DHT22;1910;49.042;9.028;2023-07-31T17:50:38;19.80;99.90
3790;DHT22;1910;49.042;9.028;2023-07-31T17:53:04;19.50;99.90
3790;DHT22;1910;49.042;9.028;2023-07-31T17:55:30;19.30;99.90
3790;DHT22;1910;49.042;9.028;2023-07-31T17:57:56;19.10;99.90
3790;DHT22;1910;49.042;9.028;2023-07-31T18:00:21;20.00;99.90
3790;DHT22;1910;49.042;9.028;2023-07-31T18:02:48;19.20;99.90
3790;DHT22;1910;49.042;9.028;2023-07-31T18:05:14;20.60;99.90
3790;DHT22;1910;49.042;9.028;2023-07-31T18:07:40;18.80;99.90
3790;DHT22;1910;49.042;9.028;2023-07-31T18:10:06;18.80;99.90
3790;DHT22;1910;49.042;9.028;2023-07-31T18:12:33;18.70;99.90
3790;DHT22;1910;49.042;9.028;2023-07-31T18:14:58;18.60;99.90
3790;DHT22;1910;49.042;9.028;2023-07-31T18:17:25;18.50;99.90
3790;DHT22;1910;49.042;9.028;2023-07-31T18:19:53;18.40;99.90
3790;DHT22;1910;49.042;9.028;2023-07-31T18:22:19;18.30;99.90
3790;DHT22;1910;49.042;9.028;2023-07-31T18:27:10;18.10;99.90
3790;DHT22;1910;49.042;9.028;2023-07-31T18:29:39;18.00;99.90
3790;DHT22;1910;49.042;9.028;2023-07-31T18:32:05;17.90;99.90
3790;DHT22;1910;49.042;9.028;2023-07-31T18:34:32;17.70;99.90
3790;DHT22;1910;49.042;9.028;2023-07-31T18:36:58;17.80;99.90
3790;DHT22;1910;49.042;9.028;2023-07-31T18:39:23;17.70;99.90
3790;DHT22;1910;49.042;9.028;2023-07-31T18:41:49;17.60;99.90
3790;DHT22;1910;49.042;9.028;2023-07-31T18:44:15;17.70;99.90
3790;DHT22;1910;49.042;9.028;2023-07-31T18:46:40;17.60;99.90
3790;DHT22;1910;49.042;9.028;2023-07-31T18:49:06;17.60;99.90
3790;DHT22;1910;49.042;9.028;2023-07-31T18:51:31;17.60;99.90
3790;DHT22;1910;49.042;9.028;2023-07-31T18:54:02;17.60;99.90
3790;DHT22;1910;49.042;9.028;2023-07-31T18:56:27;17.60;99.90